Time;durP1;ratioP1;P1;durP2;ratioP2;P2;SDS_P1;SDS_P2;PMS_P1;PMS_P2;Temp;Humidity;BMP_temperature;BMP_pressure;BME280_temperature;BME280_humidity;BME280_pressure;Samples;Min_cycle;Max_cycle;Signal;HPM_P1;HPM_P2
2023/12/28 00:00:27;;;;;;;13.35;8.68;;;4.10;79.90;;;;;;4991863;28;20558;-63
2023/12/28 00:02:52;;;;;;;13.88;8.57;;;4.10;80.00;;;;;;4989021;28;20115;-64
2023/12/28 00:05:18;;;;;;;12.00;8.48;;;4.00;80.00;;;;;;4990883;28;20042;-63
2023/12/28 00:07:44;;;;;;;12.00;8.00;;;4.00;80.00;;;;;;4989950;28;20446;-63
2023/12/28 00:10:10;;;;;;;12.90;8.85;;;4.00;80.30;;;;;;4990001;28;20035;-63
2023/12/28 00:12:35;;;;;;;14.63;8.95;;;4.00;80.40;;;;;;4989244;28;20073;-64
2023/12/28 00:15:01;;;;;;;15.80;8.85;;;3.90;80.20;;;;;;4990297;28;20081;-62
2023/12/28 00:17:27;;;;;;;14.60;8.75;;;4.00;80.20;;;;;;4991195;28;20053;-63
2023/12/28 00:19:52;;;;;;;15.90;8.80;;;3.90;80.00;;;;;;4990273;28;20126;-63
2023/12/28 00:22:18;;;;;;;18.45;9.60;;;3.90;79.90;;;;;;4990725;28;20042;-63
2023/12/28 00:24:43;;;;;;;18.30;9.45;;;3.90;79.90;;;;;;4990598;28;20113;-63
2023/12/28 00:27:09;;;;;;;12.07;7.47;;;3.80;80.00;;;;;;4990006;28;20039;-62
2023/12/28 00:29:38;;;;;;;12.00;7.60;;;3.70;80.40;;;;;;4989408;28;20034;-64
2023/12/28 00:32:05;;;;;;;14.65;8.50;;;3.70;80.70;;;;;;4990877;28;20424;-63
2023/12/28 00:34:30;;;;;;;10.60;7.22;;;3.70;80.70;;;;;;4990721;28;20045;-62
2023/12/28 00:36:56;;;;;;;11.27;6.93;;;3.70;80.80;;;;;;4989454;28;20036;-63
2023/12/28 00:39:22;;;;;;;13.25;7.20;;;3.70;81.10;;;;;;4990062;28;20113;-63
2023/12/28 00:41:47;;;;;;;12.52;7.97;;;3.60;81.00;;;;;;4989971;28;20034;-63
2023/12/28 00:44:13;;;;;;;15.32;8.15;;;3.60;80.90;;;;;;4989809;28;20521;-63
2023/12/28 00:46:38;;;;;;;10.82;7.65;;;3.70;80.80;;;;;;4989513;28;20065;-62
2023/12/28 00:49:04;;;;;;;11.68;7.38;;;3.70;80.60;;;;;;4989020;28;20042;-63
2023/12/28 00:51:29;;;;;;;15.30;7.63;;;3.70;80.40;;;;;;4989770;28;20034;-63
2023/12/28 00:53:55;;;;;;;10.93;7.55;;;3.70;80.40;;;;;;4990005;28;20033;-63
2023/12/28 00:56:21;;;;;;;11.95;7.70;;;3.70;80.30;;;;;;4990607;28;20121;-64
2023/12/28 00:58:46;;;;;;;10.35;7.25;;;3.70;80.20;;;;;;4988783;28;20038;-62
2023/12/28 01:01:12;;;;;;;10.48;7.25;;;3.70;80.00;;;;;;4989510;28;20073;-61
2023/12/28 01:03:38;;;;;;;10.25;7.07;;;3.70;80.00;;;;;;4988175;28;20405;-62
2023/12/28 01:06:05;;;;;;;9.90;7.10;;;3.70;80.00;;;;;;4990123;28;20061;-63
2023/12/28 01:08:30;;;;;;;10.88;6.63;;;3.60;80.00;;;;;;4989850;28;20508;-62
2023/12/28 01:10:56;;;;;;;10.80;7.15;;;3.60;80.00;;;;;;4988783;28;20302;-62
2023/12/28 01:13:21;;;;;;;11.98;7.35;;;3.60;80.20;;;;;;4989296;28;20068;-63
2023/12/28 01:15:47;;;;;;;12.95;7.93;;;3.60;80.10;;;;;;4988451;28;20041;-63
2023/12/28 01:18:13;;;;;;;11.93;7.35;;;3.60;80.10;;;;;;4989406;28;20041;-63
2023/12/28 01:20:38;;;;;;;9.32;6.57;;;3.60;79.90;;;;;;4988773;28;20030;-61
2023/12/28 01:23:04;;;;;;;11.35;6.82;;;3.60;79.90;;;;;;4989031;28;20038;-62
2023/12/28 01:25:29;;;;;;;8.98;6.63;;;3.60;79.90;;;;;;4988709;28;20081;-63
2023/12/28 01:27:55;;;;;;;10.65;6.47;;;3.60;80.00;;;;;;4989019;28;20061;-63
2023/12/28 01:30:20;;;;;;;8.73;6.57;;;3.50;80.00;;;;;;4988389;28;20130;-62
2023/12/28 01:32:46;;;;;;;9.05;6.18;;;3.50;80.00;;;;;;4988239;28;20080;-61
2023/12/28 01:35:11;;;;;;;10.43;6.25;;;3.50;80.00;;;;;;4988979;28;20590;-63
2023/12/28 01:37:37;;;;;;;10.25;6.20;;;3.50;80.20;;;;;;4988935;28;20045;-61
2023/12/28 01:40:03;;;;;;;11.75;5.90;;;3.50;80.00;;;;;;4988450;28;20036;-63
2023/12/28 01:42:30;;;;;;;12.05;6.93;;;3.40;80.00;;;;;;4988516;28;20044;-62
2023/12/28 01:44:57;;;;;;;11.13;7.63;;;3.40;80.10;;;;;;4987974;28;20192;-63
2023/12/28 01:47:24;;;;;;;11.23;6.68;;;3.40;80.20;;;;;;4989155;28;20050;-63
2023/12/28 01:49:49;;;;;;;11.73;6.68;;;3.40;80.10;;;;;;4988004;28;20031;-62
2023/12/28 01:52:15;;;;;;;10.63;6.82;;;3.30;80.10;;;;;;4988717;28;20045;-62
2023/12/28 01:54:41;;;;;;;10.45;6.53;;;3.30;80.10;;;;;;4988358;28;20168;-63
2023/12/28 01:57:07;;;;;;;9.60;6.07;;;3.30;80.20;;;;;;4987771;28;20042;-62
2023/12/28 01:59:33;;;;;;;9.07;6.68;;;3.30;80.30;;;;;;4988339;28;20430;-64
2023/12/28 02:01:59;;;;;;;9.77;6.18;;;3.30;80.40;;;;;;4987016;28;20031;-63
2023/12/28 02:04:27;;;;;;;11.60;6.35;;;3.30;80.40;;;;;;4988392;28;20065;-63
2023/12/28 02:06:59;;;;;;;9.55;6.45;;;3.30;80.70;;;;;;4988100;28;20517;-63
2023/12/28 02:09:25;;;;;;;10.85;6.45;;;3.30;81.00;;;;;;4988192;28;20110;-63
2023/12/28 02:11:51;;;;;;;10.05;6.53;;;3.40;81.20;;;;;;4987320;28;20138;-63
2023/12/28 02:14:17;;;;;;;9.23;6.07;;;3.40;81.10;;;;;;4988059;28;20582;-62
2023/12/28 02:16:53;;;;;;;11.23;5.75;;;3.50;81.10;;;;;;4987837;28;20034;-61
2023/12/28 02:19:43;;;;;;;8.40;6.15;;;3.50;81.10;;;;;;4984865;28;20042;-63
2023/12/28 02:22:11;;;;;;;9.10;6.50;;;3.50;81.30;;;;;;4988172;28;20030;-63
2023/12/28 02:24:55;;;;;;;9.07;5.93;;;3.60;81.00;;;;;;4988239;28;20034;-63
2023/12/28 02:27:21;;;;;;;8.53;6.07;;;3.60;81.70;;;;;;4984342;28;20041;-64
2023/12/28 02:29:46;;;;;;;10.18;6.40;;;3.60;81.60;;;;;;4988654;28;20117;-63
2023/12/28 02:32:13;;;;;;;9.93;6.03;;;3.60;82.00;;;;;;4988411;28;20038;-63
2023/12/28 02:34:44;;;;;;;10.80;5.85;;;3.60;81.80;;;;;;4988158;28;20049;-63
2023/12/28 02:37:16;;;;;;;9.68;5.63;;;3.70;81.60;;;;;;4987421;28;20149;-63
2023/12/28 02:39:44;;;;;;;9.82;6.20;;;3.70;81.50;;;;;;4984795;28;20046;-62
2023/12/28 02:42:09;;;;;;;9.27;6.55;;;3.70;81.30;;;;;;4982278;28;20047;-63
2023/12/28 02:44:35;;;;;;;12.23;7.30;;;3.80;81.10;;;;;;4987313;28;20068;-63
2023/12/28 02:47:01;;;;;;;10.82;6.35;;;3.70;80.90;;;;;;4988339;28;20058;-63
2023/12/28 02:49:26;;;;;;;9.10;6.43;;;3.70;81.10;;;;;;4988077;28;20514;-62
2023/12/28 02:51:52;;;;;;;11.50;7.57;;;3.70;81.10;;;;;;4986638;28;20465;-62
2023/12/28 02:54:17;;;;;;;10.35;7.43;;;3.80;81.20;;;;;;4986963;28;20038;-63
2023/12/28 02:56:43;;;;;;;13.95;8.13;;;3.70;81.20;;;;;;4987192;28;20031;-62
2023/12/28 02:59:08;;;;;;;11.55;7.60;;;3.70;81.50;;;;;;4987675;28;20069;-63
2023/12/28 03:01:34;;;;;;;11.82;7.30;;;3.70;81.60;;;;;;4987375;28;20113;-64
2023/12/28 03:03:59;;;;;;;9.38;6.82;;;3.80;82.50;;;;;;4987767;28;20027;-63
2023/12/28 03:06:25;;;;;;;11.63;7.65;;;3.80;81.50;;;;;;4988606;28;20531;-63
2023/12/28 03:08:50;;;;;;;9.88;7.10;;;3.80;81.30;;;;;;4985022;28;20625;-63
2023/12/28 03:11:16;;;;;;;9.82;7.15;;;3.80;82.10;;;;;;4992689;28;20484;-63
2023/12/28 03:13:42;;;;;;;10.30;7.63;;;3.80;81.40;;;;;;4991527;28;20026;-63
2023/12/28 03:16:07;;;;;;;15.63;8.88;;;3.80;81.40;;;;;;4991288;28;20783;-63
2023/12/28 03:18:33;;;;;;;12.65;7.72;;;3.80;81.40;;;;;;4990672;28;20030;-63
2023/12/28 03:21:00;;;;;;;11.10;7.10;;;3.90;81.30;;;;;;4990548;28;20085;-61
2023/12/28 03:23:25;;;;;;;9.05;6.53;;;3.90;81.20;;;;;;4990799;28;20116;-63
2023/12/28 03:25:51;;;;;;;11.65;6.80;;;3.90;81.10;;;;;;4990949;28;20034;-63
2023/12/28 03:28:16;;;;;;;9.25;6.28;;;4.00;81.30;;;;;;4991671;28;20039;-63
2023/12/28 03:30:42;;;;;;;8.95;6.28;;;4.00;81.20;;;;;;4989669;28;20105;-64
2023/12/28 03:33:07;;;;;;;11.88;6.78;;;4.00;81.20;;;;;;4991364;28;20035;-63
2023/12/28 03:35:33;;;;;;;9.35;6.45;;;4.10;81.20;;;;;;4990687;28;20421;-62
2023/12/28 03:37:59;;;;;;;9.20;6.25;;;4.10;80.90;;;;;;4990269;28;20105;-61
2023/12/28 03:40:25;;;;;;;9.68;6.25;;;4.10;80.70;;;;;;4990503;28;20103;-62
2023/12/28 03:42:51;;;;;;;10.63;6.13;;;4.20;80.70;;;;;;4990552;28;20507;-63
2023/12/28 03:45:16;;;;;;;8.30;6.07;;;4.20;80.60;;;;;;4990581;28;20039;-63
2023/12/28 03:47:42;;;;;;;10.52;6.10;;;4.20;80.40;;;;;;4991311;28;20054;-62
2023/12/28 03:50:08;;;;;;;11.15;6.85;;;4.30;80.10;;;;;;4990314;28;20061;-63
2023/12/28 03:52:34;;;;;;;9.38;5.93;;;4.30;79.90;;;;;;4990828;28;20034;-63
2023/12/28 03:54:59;;;;;;;9.40;5.97;;;4.30;79.80;;;;;;4990939;28;20030;-63
2023/12/28 03:57:25;;;;;;;9.32;6.10;;;4.20;79.70;;;;;;4990724;28;20072;-63
2023/12/28 03:59:51;;;;;;;10.82;6.55;;;4.20;79.80;;;;;;4989042;28;20044;-62
2023/12/28 04:02:16;;;;;;;9.23;6.68;;;4.20;79.80;;;;;;4990478;28;20538;-63
2023/12/28 04:04:42;;;;;;;12.07;6.70;;;4.20;79.70;;;;;;4990403;28;20026;-63
2023/12/28 04:07:07;;;;;;;10.05;6.68;;;4.20;79.60;;;;;;4990333;28;20084;-63
2023/12/28 04:09:33;;;;;;;8.80;6.38;;;4.20;79.60;;;;;;4990335;28;20455;-63
2023/12/28 04:11:59;;;;;;;9.93;7.05;;;4.20;79.50;;;;;;4986467;28;20085;-63
2023/12/28 04:14:25;;;;;;;9.93;6.70;;;4.10;79.50;;;;;;4990259;28;20049;-64
2023/12/28 04:16:50;;;;;;;11.07;6.68;;;4.10;79.70;;;;;;4989471;28;20130;-63
2023/12/28 04:19:16;;;;;;;11.77;6.20;;;4.10;79.80;;;;;;4989531;28;20035;-63
2023/12/28 04:21:44;;;;;;;10.63;6.60;;;4.10;79.80;;;;;;4989290;28;20191;-61
2023/12/28 04:24:10;;;;;;;8.57;5.97;;;4.10;79.70;;;;;;4989992;28;20027;-62
2023/12/28 04:26:36;;;;;;;8.45;6.07;;;4.00;79.70;;;;;;4990252;28;20137;-63
2023/12/28 04:29:02;;;;;;;9.20;6.47;;;4.00;79.90;;;;;;4990175;28;20042;-62
2023/12/28 04:31:27;;;;;;;8.88;6.30;;;4.00;80.20;;;;;;4989937;28;20042;-63
2023/12/28 04:33:53;;;;;;;8.05;5.80;;;4.00;80.30;;;;;;4988814;28;20710;-61
2023/12/28 04:36:19;;;;;;;10.82;6.32;;;4.00;80.30;;;;;;4991453;28;20041;-63
2023/12/28 04:38:44;;;;;;;8.18;5.53;;;4.00;80.30;;;;;;4989671;28;20030;-63
2023/12/28 04:41:10;;;;;;;8.32;5.72;;;4.00;80.20;;;;;;4989896;28;20498;-63
2023/12/28 04:43:36;;;;;;;7.20;5.70;;;4.10;80.10;;;;;;4989512;28;20026;-63
2023/12/28 04:46:05;;;;;;;10.45;5.80;;;4.10;80.00;;;;;;4990597;28;20026;-63
2023/12/28 04:48:31;;;;;;;7.03;5.18;;;4.10;79.90;;;;;;4990252;28;20078;-63
2023/12/28 04:50:57;;;;;;;6.75;5.28;;;4.00;79.70;;;;;;4989390;28;20149;-64
2023/12/28 04:53:22;;;;;;;9.27;5.20;;;4.10;79.90;;;;;;4989594;28;20117;-64
2023/12/28 04:55:48;;;;;;;7.95;4.65;;;4.10;80.00;;;;;;4990943;28;20057;-63
2023/12/28 04:58:14;;;;;;;7.50;5.00;;;4.10;80.00;;;;;;4989489;28;20459;-63
2023/12/28 05:00:40;;;;;;;8.45;4.68;;;4.10;79.90;;;;;;4989227;28;20576;-63
2023/12/28 05:03:06;;;;;;;5.68;4.60;;;4.10;79.90;;;;;;4989030;28;20045;-63
2023/12/28 05:05:32;;;;;;;7.63;4.85;;;4.20;80.30;;;;;;4989836;28;20117;-63
2023/12/28 05:07:58;;;;;;;5.85;4.40;;;4.30;80.70;;;;;;4989486;28;20038;-64
2023/12/28 05:10:23;;;;;;;7.95;4.65;;;4.40;80.80;;;;;;4988782;28;20037;-63
2023/12/28 05:12:49;;;;;;;6.43;4.75;;;4.50;80.70;;;;;;4988776;28;20034;-63
2023/12/28 05:15:15;;;;;;;10.35;5.30;;;4.60;80.40;;;;;;4989764;28;20057;-63
2023/12/28 05:17:41;;;;;;;6.47;4.70;;;4.80;80.20;;;;;;4988381;28;20309;-63
2023/12/28 05:20:07;;;;;;;7.40;4.88;;;4.80;79.70;;;;;;4989416;28;20054;-63
2023/12/28 05:22:32;;;;;;;10.25;5.22;;;4.90;79.00;;;;;;4988496;28;20040;-63
2023/12/28 05:24:58;;;;;;;6.35;5.07;;;5.00;78.60;;;;;;4988822;28;20409;-63
2023/12/28 05:27:24;;;;;;;6.68;5.13;;;5.00;78.40;;;;;;4989687;28;20038;-63
2023/12/28 05:29:49;;;;;;;7.70;5.20;;;5.10;78.20;;;;;;4988694;28;20037;-62
2023/12/28 05:32:15;;;;;;;7.40;5.22;;;5.10;78.00;;;;;;4988046;28;20410;-64
2023/12/28 05:34:40;;;;;;;8.30;5.43;;;5.10;77.80;;;;;;4989223;28;20073;-64
2023/12/28 05:37:06;;;;;;;9.20;5.93;;;5.10;77.60;;;;;;4987711;28;20038;-63
2023/12/28 05:39:32;;;;;;;8.23;6.05;;;5.10;77.40;;;;;;4988792;28;20096;-64
2023/12/28 05:41:57;;;;;;;8.52;5.68;;;5.10;77.40;;;;;;4989112;28;20039;-64
2023/12/28 05:44:23;;;;;;;7.93;5.82;;;5.10;77.30;;;;;;4988707;28;20030;-64
2023/12/28 05:46:48;;;;;;;9.45;6.30;;;5.10;77.40;;;;;;4988116;28;20038;-63
2023/12/28 05:49:14;;;;;;;8.15;5.63;;;5.00;77.40;;;;;;4988577;28;20047;-62
2023/12/28 05:51:40;;;;;;;7.65;5.68;;;5.10;77.40;;;;;;4988873;28;20134;-63
2023/12/28 05:54:07;;;;;;;9.93;6.30;;;5.10;77.30;;;;;;4989670;28;20366;-63
2023/12/28 05:56:32;;;;;;;9.00;6.45;;;5.00;77.10;;;;;;4988216;28;20045;-63
2023/12/28 05:58:58;;;;;;;8.82;5.60;;;5.00;77.10;;;;;;4988106;28;20081;-62
2023/12/28 06:01:24;;;;;;;7.30;4.93;;;5.00;77.00;;;;;;4989059;28;20125;-64
2023/12/28 06:03:52;;;;;;;6.55;4.75;;;5.00;77.10;;;;;;4983414;28;20445;-63
2023/12/28 06:06:18;;;;;;;7.43;4.88;;;5.00;77.10;;;;;;4988637;28;20088;-64
2023/12/28 06:08:43;;;;;;;7.53;4.70;;;4.90;77.10;;;;;;4988966;28;20042;-64
2023/12/28 06:11:09;;;;;;;6.07;4.40;;;4.90;77.20;;;;;;4987919;28;20046;-64
2023/12/28 06:13:34;;;;;;;8.30;4.70;;;5.00;77.30;;;;;;4988139;28;20445;-64
2023/12/28 06:16:00;;;;;;;6.13;4.20;;;5.00;77.30;;;;;;4989683;28;20073;-63
2023/12/28 06:18:25;;;;;;;7.57;4.18;;;5.00;77.30;;;;;;4988071;28;20467;-62
2023/12/28 06:20:51;;;;;;;4.63;3.70;;;5.00;77.30;;;;;;4988899;28;20065;-62
2023/12/28 06:23:17;;;;;;;4.60;3.75;;;5.00;77.20;;;;;;4989145;28;20035;-63
2023/12/28 06:25:42;;;;;;;4.53;3.60;;;5.10;77.20;;;;;;4987525;28;20121;-63
2023/12/28 06:28:08;;;;;;;4.75;3.40;;;5.20;77.10;;;;;;4988882;28;20035;-63
2023/12/28 06:30:33;;;;;;;5.90;4.13;;;5.20;77.10;;;;;;4988128;28;20526;-63
2023/12/28 06:32:59;;;;;;;3.83;3.30;;;5.30;77.10;;;;;;4981605;28;20490;-63
2023/12/28 06:35:24;;;;;;;4.85;3.45;;;5.40;76.90;;;;;;4987711;28;20073;-62
2023/12/28 06:37:50;;;;;;;4.30;3.20;;;5.40;76.80;;;;;;4988296;28;20082;-63
2023/12/28 06:40:16;;;;;;;4.18;3.35;;;5.50;76.70;;;;;;4988403;28;20034;-62
2023/12/28 06:42:43;;;;;;;7.20;4.80;;;5.60;76.40;;;;;;4989317;28;20049;-63
2023/12/28 06:45:10;;;;;;;7.82;5.60;;;5.70;75.20;;;;;;4987383;28;20038;-64
2023/12/28 06:47:35;;;;;;;7.70;5.45;;;5.70;74.30;;;;;;4991727;28;20038;-63
2023/12/28 06:50:01;;;;;;;8.55;5.30;;;5.70;74.20;;;;;;4991053;28;20038;-63
2023/12/28 06:52:26;;;;;;;8.18;5.53;;;5.60;74.50;;;;;;4991416;28;20034;-63
2023/12/28 06:54:53;;;;;;;8.82;6.03;;;5.50;74.80;;;;;;4993302;28;20044;-63
2023/12/28 06:57:18;;;;;;;7.70;5.75;;;5.50;75.00;;;;;;4991589;28;20048;-62
2023/12/28 06:59:44;;;;;;;8.23;5.60;;;5.40;75.20;;;;;;4991219;28;20030;-63
2023/12/28 07:02:10;;;;;;;8.52;5.38;;;5.40;75.30;;;;;;4990647;28;20031;-62
2023/12/28 07:04:35;;;;;;;8.00;5.80;;;5.30;75.30;;;;;;4992816;28;20482;-62
2023/12/28 07:07:01;;;;;;;9.23;6.15;;;5.20;75.40;;;;;;4991495;28;20042;-63
2023/12/28 07:09:26;;;;;;;17.25;13.50;;;5.20;75.60;;;;;;4992014;28;20042;-62
2023/12/28 07:11:52;;;;;;;11.30;8.65;;;5.20;75.80;;;;;;4991256;28;20105;-63
2023/12/28 07:14:17;;;;;;;11.38;6.88;;;5.10;75.90;;;;;;4991408;28;20425;-62
2023/12/28 07:16:43;;;;;;;8.38;6.03;;;5.00;76.00;;;;;;4990457;28;20042;-63
2023/12/28 07:19:09;;;;;;;9.55;6.03;;;5.00;76.20;;;;;;4978210;28;20491;-64
2023/12/28 07:21:34;;;;;;;8.93;5.63;;;5.00;76.30;;;;;;4981167;28;20050;-63
2023/12/28 07:24:00;;;;;;;7.35;5.35;;;5.00;76.40;;;;;;4976359;28;20426;-63
2023/12/28 07:26:25;;;;;;;8.02;5.57;;;4.90;76.40;;;;;;4981967;28;20121;-63
2023/12/28 07:28:51;;;;;;;9.75;5.43;;;4.90;76.60;;;;;;4982031;28;20042;-62
2023/12/28 07:31:26;;;;;;;5.63;5.00;;;4.90;76.70;;;;;;4983936;28;20039;-62
2023/12/28 07:33:51;;;;;;;8.23;5.10;;;4.90;76.90;;;;;;4986622;28;20470;-62
2023/12/28 07:36:17;;;;;;;8.18;5.72;;;4.90;77.00;;;;;;4985697;28;20129;-63
2023/12/28 07:38:44;;;;;;;7.32;5.47;;;4.90;77.00;;;;;;4987983;28;20038;-63
2023/12/28 07:41:09;;;;;;;10.45;5.95;;;4.90;77.00;;;;;;4985257;28;20041;-63
2023/12/28 07:43:36;;;;;;;7.10;5.13;;;4.90;77.10;;;;;;4983200;28;20030;-61
2023/12/28 07:46:01;;;;;;;8.98;6.07;;;5.00;77.20;;;;;;4979820;28;20034;-64
2023/12/28 07:48:29;;;;;;;8.25;5.75;;;5.00;77.30;;;;;;4988011;28;20062;-63
2023/12/28 07:50:55;;;;;;;7.78;5.18;;;5.00;77.30;;;;;;4987754;28;20042;-63
2023/12/28 07:53:21;;;;;;;6.00;4.45;;;5.10;77.30;;;;;;4987607;28;20088;-63
2023/12/28 07:55:47;;;;;;;5.95;4.40;;;5.10;77.30;;;;;;4985311;28;20450;-63
2023/12/28 07:58:12;;;;;;;8.15;5.35;;;5.10;77.50;;;;;;4985778;28;20034;-63
2023/12/28 08:00:38;;;;;;;7.55;5.10;;;5.10;77.60;;;;;;4981562;28;20034;-63
2023/12/28 08:03:04;;;;;;;5.82;4.80;;;5.20;77.40;;;;;;4986749;28;20022;-63
2023/12/28 08:05:29;;;;;;;7.55;4.75;;;5.30;77.40;;;;;;4986471;28;20401;-64
2023/12/28 08:07:55;;;;;;;7.13;5.07;;;5.30;77.30;;;;;;4985528;28;20101;-63
2023/12/28 08:10:20;;;;;;;6.72;5.50;;;5.40;77.30;;;;;;4984310;28;20038;-63
2023/12/28 08:12:46;;;;;;;9.07;5.80;;;5.40;77.30;;;;;;4983148;28;20457;-63
2023/12/28 08:15:12;;;;;;;7.68;5.53;;;5.50;77.30;;;;;;4983533;28;20096;-62
2023/12/28 08:17:37;;;;;;;8.73;5.60;;;5.50;77.30;;;;;;4983658;28;20042;-61
2023/12/28 08:20:04;;;;;;;6.93;4.63;;;5.60;77.50;;;;;;4985345;28;20070;-62
2023/12/28 08:22:31;;;;;;;8.38;4.60;;;5.60;77.40;;;;;;4981209;28;20038;-64
2023/12/28 08:24:57;;;;;;;6.60;4.95;;;5.70;77.30;;;;;;4982368;28;20062;-63
2023/12/28 08:27:23;;;;;;;7.28;5.10;;;5.70;77.00;;;;;;4977871;28;20050;-63
2023/12/28 08:29:49;;;;;;;7.47;4.95;;;5.80;76.90;;;;;;4979558;28;20567;-62
2023/12/28 08:32:14;;;;;;;8.43;4.90;;;5.80;76.70;;;;;;4983486;28;20526;-63
2023/12/28 08:34:40;;;;;;;7.43;5.20;;;5.90;76.60;;;;;;4984249;28;20451;-63
2023/12/28 08:37:06;;;;;;;6.75;5.00;;;5.90;76.60;;;;;;4987026;28;20467;-64
2023/12/28 08:39:31;;;;;;;11.60;5.43;;;5.90;76.70;;;;;;4983502;28;20235;-64
2023/12/28 08:41:57;;;;;;;11.52;6.53;;;5.90;76.80;;;;;;4988587;28;20038;-64
2023/12/28 08:44:23;;;;;;;8.07;5.60;;;6.00;76.90;;;;;;4987452;28;20390;-64
2023/12/28 08:46:48;;;;;;;9.60;6.05;;;6.00;76.70;;;;;;4985109;28;20042;-63
2023/12/28 08:49:15;;;;;;;8.85;6.20;;;6.10;76.60;;;;;;4985247;28;20039;-63
2023/12/28 08:51:41;;;;;;;8.35;6.20;;;6.10;76.70;;;;;;4986025;28;20046;-63
2023/12/28 08:54:08;;;;;;;9.10;6.18;;;6.10;76.70;;;;;;4983605;28;20074;-63
2023/12/28 08:56:33;;;;;;;8.65;6.43;;;6.20;76.90;;;;;;4984592;28;20042;-62
2023/12/28 08:58:59;;;;;;;9.68;6.35;;;6.20;76.80;;;;;;4979612;28;20042;-63
2023/12/28 09:01:30;;;;;;;8.15;6.05;;;6.20;76.70;;;;;;4982596;28;20035;-63
2023/12/28 09:03:56;;;;;;;7.85;5.40;;;6.20;76.70;;;;;;4982988;28;20526;-61
2023/12/28 09:06:22;;;;;;;8.93;6.90;;;6.30;76.70;;;;;;4985428;28;20053;-61
2023/12/28 09:08:50;;;;;;;9.43;6.22;;;6.30;76.90;;;;;;4982331;28;20045;-63
2023/12/28 09:11:16;;;;;;;10.63;6.85;;;6.30;76.80;;;;;;4979899;28;20654;-63
2023/12/28 09:13:42;;;;;;;8.65;6.05;;;6.40;76.70;;;;;;4978335;28;20034;-62
2023/12/28 09:16:11;;;;;;;9.32;6.10;;;6.40;76.60;;;;;;4975190;28;20224;-62
2023/12/28 09:18:37;;;;;;;5.65;4.97;;;6.40;76.50;;;;;;4985071;28;20955;-62
2023/12/28 09:21:07;;;;;;;7.03;5.43;;;6.40;76.40;;;;;;4983002;28;20034;-63
2023/12/28 09:23:34;;;;;;;8.50;5.60;;;6.40;76.40;;;;;;4980701;28;20033;-63
2023/12/28 09:26:01;;;;;;;9.23;6.65;;;6.40;76.40;;;;;;4985717;28;20035;-62
2023/12/28 09:28:26;;;;;;;12.80;7.55;;;6.40;76.60;;;;;;4985331;28;20126;-63
2023/12/28 09:30:52;;;;;;;11.43;7.32;;;6.40;76.70;;;;;;4983486;28;20129;-62
2023/12/28 09:33:17;;;;;;;9.77;6.85;;;6.40;76.60;;;;;;4979853;28;20034;-63
2023/12/28 09:35:43;;;;;;;11.73;6.28;;;6.50;76.80;;;;;;4987173;28;20061;-61
2023/12/28 09:38:09;;;;;;;9.88;6.43;;;6.50;76.70;;;;;;4986824;28;20430;-63
2023/12/28 09:40:38;;;;;;;11.82;6.80;;;6.50;76.50;;;;;;4982481;28;20041;-62
2023/12/28 09:43:13;;;;;;;12.50;8.32;;;6.60;76.60;;;;;;4979557;28;20069;-62
2023/12/28 09:45:39;;;;;;;10.77;7.47;;;6.60;76.70;;;;;;4986697;28;20049;-62
2023/12/28 09:48:06;;;;;;;9.82;6.28;;;6.60;76.90;;;;;;4988834;28;20034;-62
2023/12/28 09:50:32;;;;;;;9.68;6.90;;;6.70;76.90;;;;;;4987179;28;20045;-61
2023/12/28 09:52:58;;;;;;;9.55;6.28;;;6.80;77.00;;;;;;4987734;28;20042;-62
2023/12/28 09:55:25;;;;;;;10.35;6.15;;;6.80;76.80;;;;;;4989434;28;20525;-62
2023/12/28 09:57:51;;;;;;;7.32;5.20;;;6.80;76.60;;;;;;4987729;28;20042;-62
2023/12/28 10:00:17;;;;;;;8.90;5.18;;;6.90;76.60;;;;;;4987746;28;20093;-62
2023/12/28 10:02:44;;;;;;;9.18;5.40;;;6.90;76.60;;;;;;4987685;28;20120;-62
2023/12/28 10:05:14;;;;;;;5.80;4.85;;;7.00;76.80;;;;;;4987491;28;20027;-62
2023/12/28 10:07:44;;;;;;;7.00;4.93;;;7.00;76.50;;;;;;4988921;28;20034;-62
2023/12/28 10:10:10;;;;;;;8.52;4.97;;;7.10;76.50;;;;;;4988317;28;20045;-63
2023/12/28 10:12:37;;;;;;;9.35;6.15;;;7.10;76.50;;;;;;4987168;28;20034;-60
2023/12/28 10:15:04;;;;;;;9.13;5.97;;;7.20;76.50;;;;;;4986183;28;20034;-61
2023/12/28 10:17:32;;;;;;;9.80;6.18;;;7.20;76.50;;;;;;4983135;28;20046;-62
2023/12/28 10:20:03;;;;;;;9.02;6.28;;;7.30;76.50;;;;;;4983658;28;20045;-62
2023/12/28 10:22:29;;;;;;;8.88;6.45;;;7.30;76.50;;;;;;4981415;28;20046;-62
2023/12/28 10:24:55;;;;;;;9.95;6.90;;;7.40;76.60;;;;;;4986560;28;20065;-61
2023/12/28 10:27:23;;;;;;;8.82;6.30;;;7.50;76.60;;;;;;4988215;28;20041;-62
2023/12/28 10:29:49;;;;;;;9.98;5.65;;;7.50;77.50;;;;;;4982797;28;20042;-61
2023/12/28 10:32:14;;;;;;;6.72;5.00;;;7.60;76.60;;;;;;4987941;28;20185;-63
2023/12/28 10:34:40;;;;;;;6.47;4.75;;;7.70;76.80;;;;;;4988341;28;20042;-62
2023/12/28 10:37:06;;;;;;;7.90;4.30;;;7.70;76.80;;;;;;4988616;28;20049;-62
2023/12/28 10:39:34;;;;;;;6.63;3.97;;;7.80;76.80;;;;;;4986676;28;20086;-62
2023/12/28 10:42:04;;;;;;;8.98;5.22;;;7.70;76.60;;;;;;4982464;28;20120;-62
2023/12/28 10:44:35;;;;;;;8.43;6.38;;;7.80;76.50;;;;;;4985553;28;20529;-62
2023/12/28 10:47:02;;;;;;;6.30;4.43;;;7.80;76.10;;;;;;4985743;28;20066;-63
2023/12/28 10:49:30;;;;;;;7.70;4.82;;;7.90;76.00;;;;;;4988790;28;20035;-62
2023/12/28 10:51:55;;;;;;;8.10;5.55;;;7.90;76.70;;;;;;4988335;28;20022;-63
2023/12/28 10:55:00;;;;;;;12.90;8.27;;;7.90;75.90;;;;;;4988557;28;20093;-62
2023/12/28 10:57:55;;;;;;;12.68;8.00;;;8.00;75.50;;;;;;4967904;28;20553;-61
2023/12/28 11:00:26;;;;;;;11.38;7.00;;;8.00;75.30;;;;;;4987302;28;20038;-62
2023/12/28 11:03:02;;;;;;;10.13;5.82;;;8.10;75.40;;;;;;4986557;28;20042;-63
2023/12/28 11:05:29;;;;;;;8.70;5.90;;;8.10;75.20;;;;;;4988900;28;20034;-63
2023/12/28 11:07:58;;;;;;;12.05;6.90;;;8.10;75.20;;;;;;4988396;28;20446;-63
2023/12/28 11:10:24;;;;;;;15.55;8.75;;;8.10;75.00;;;;;;4988035;28;20046;-62
2023/12/28 11:12:54;;;;;;;53.97;25.55;;;8.20;74.90;;;;;;4988194;28;20121;-62
2023/12/28 11:15:20;;;;;;;47.35;22.40;;;8.20;74.70;;;;;;4988613;28;20038;-63
2023/12/28 11:17:46;;;;;;;39.72;18.20;;;8.20;75.00;;;;;;4988698;28;20177;-63
2023/12/28 11:20:13;;;;;;;21.95;11.30;;;8.20;75.30;;;;;;4984335;28;20117;-63
2023/12/28 11:22:40;;;;;;;13.52;7.43;;;8.30;75.30;;;;;;4988027;28;20089;-63
2023/12/28 11:25:06;;;;;;;13.45;7.68;;;8.30;74.90;;;;;;4988213;28;20514;-63
2023/12/28 11:27:36;;;;;;;12.48;6.95;;;8.30;74.90;;;;;;4989397;28;20035;-63
2023/12/28 11:30:03;;;;;;;14.02;7.95;;;8.40;74.90;;;;;;4991513;28;20034;-63
2023/12/28 11:32:33;;;;;;;12.10;6.95;;;8.40;75.10;;;;;;4992214;28;20112;-63
2023/12/28 11:34:59;;;;;;;10.68;6.97;;;8.50;76.00;;;;;;4991316;28;20532;-63
2023/12/28 11:37:27;;;;;;;7.30;4.75;;;8.50;75.10;;;;;;4984731;28;20051;-63
2023/12/28 11:39:54;;;;;;;3.40;3.00;;;8.60;74.70;;;;;;4982496;28;20686;-63
2023/12/28 11:42:22;;;;;;;5.28;3.40;;;8.60;74.30;;;;;;4983753;28;20050;-63
2023/12/28 11:44:52;;;;;;;4.53;3.03;;;8.60;73.90;;;;;;4983281;28;20137;-62
2023/12/28 11:47:27;;;;;;;3.47;2.85;;;8.70;73.60;;;;;;4989155;28;20505;-62
2023/12/28 11:49:54;;;;;;;3.65;2.80;;;8.70;73.10;;;;;;4991513;28;20034;-62
2023/12/28 11:52:25;;;;;;;3.22;2.65;;;8.70;73.20;;;;;;4995050;28;20422;-63
2023/12/28 11:54:50;;;;;;;2.90;2.60;;;8.80;72.60;;;;;;4990946;28;20045;-62
2023/12/28 11:57:16;;;;;;;6.60;2.78;;;8.80;72.60;;;;;;4991193;28;20038;-63
2023/12/28 11:59:42;;;;;;;4.25;2.92;;;8.80;72.30;;;;;;4997501;28;20030;-65
2023/12/28 12:02:08;;;;;;;3.35;2.72;;;8.90;72.00;;;;;;4989001;28;20054;-62
2023/12/28 12:04:34;;;;;;;2.72;2.25;;;9.00;72.00;;;;;;4989877;28;20038;-63
2023/12/28 12:07:03;;;;;;;3.35;2.33;;;9.00;71.80;;;;;;4992503;28;20034;-62
2023/12/28 12:09:32;;;;;;;3.00;2.47;;;9.10;71.60;;;;;;4989905;28;20318;-62
2023/12/28 12:11:57;;;;;;;3.83;2.30;;;9.20;71.60;;;;;;4990281;28;20030;-61
2023/12/28 12:14:23;;;;;;;2.90;2.40;;;9.20;71.20;;;;;;4990454;28;20030;-62
2023/12/28 12:16:49;;;;;;;3.78;2.40;;;9.30;71.00;;;;;;4989109;28;21167;-62
2023/12/28 12:19:15;;;;;;;2.60;2.10;;;9.30;70.90;;;;;;4989683;28;20066;-60
2023/12/28 12:21:41;;;;;;;2.83;2.40;;;9.40;70.70;;;;;;4988802;28;20241;-63
2023/12/28 12:24:07;;;;;;;5.72;3.00;;;9.40;70.40;;;;;;4989543;28;20502;-61
2023/12/28 12:26:33;;;;;;;3.15;2.33;;;9.50;70.40;;;;;;4990053;28;20421;-63
2023/12/28 12:28:58;;;;;;;2.80;2.17;;;9.50;69.90;;;;;;4989222;28;20518;-62
2023/12/28 12:31:26;;;;;;;2.30;2.10;;;9.50;69.90;;;;;;4989636;28;20125;-63
2023/12/28 12:33:52;;;;;;;3.60;2.35;;;9.60;69.70;;;;;;4989048;28;20034;-64
2023/12/28 12:36:17;;;;;;;3.20;2.55;;;9.60;69.50;;;;;;4991764;28;20093;-63
2023/12/28 12:38:43;;;;;;;4.40;2.75;;;9.60;69.20;;;;;;4982658;28;20038;-62
2023/12/28 12:41:11;;;;;;;2.70;2.30;;;9.60;68.80;;;;;;4983036;28;20573;-62
2023/12/28 12:43:37;;;;;;;4.63;2.40;;;9.70;68.50;;;;;;4987468;28;20202;-60
2023/12/28 12:46:04;;;;;;;3.72;1.95;;;9.70;68.80;;;;;;4985819;28;20037;-61
2023/12/28 12:48:30;;;;;;;3.65;2.28;;;9.70;68.60;;;;;;4988840;28;20109;-64